Time;durP1;ratioP1;P1;durP2;ratioP2;P2;SDS_P1;SDS_P2;PMS_P1;PMS_P2;Temp;Humidity;BMP_temperature;BMP_pressure;BME280_temperature;BME280_humidity;BME280_pressure;Samples;Min_cycle;Max_cycle;Signal;HPM_P1;HPM_P2
2021/07/20 00:02:27;;;;;;;5.68;1.98;;;25.30;85.90;;;;;;3566392;40;20466;-63
2021/07/20 00:04:53;;;;;;;4.18;1.23;;;23.60;86.30;;;;;;3571146;40;20572;-63
2021/07/20 00:07:19;;;;;;;3.88;1.42;;;23.40;85.70;;;;;;3558739;40;20413;-65
2021/07/20 00:09:45;;;;;;;5.07;1.50;;;23.40;86.00;;;;;;3566321;40;20484;-63
2021/07/20 00:12:11;;;;;;;4.78;1.30;;;23.30;86.00;;;;;;3566011;40;20400;-63
2021/07/20 00:14:37;;;;;;;4.93;1.30;;;23.30;86.20;;;;;;3561742;40;20798;-67
2021/07/20 00:17:04;;;;;;;6.50;2.00;;;23.30;86.20;;;;;;3563686;40;20731;-63
2021/07/20 00:19:31;;;;;;;7.40;2.22;;;23.20;86.40;;;;;;3560898;40;20410;-62
2021/07/20 00:21:56;;;;;;;5.30;1.33;;;23.20;86.00;;;;;;3566947;40;20404;-63
2021/07/20 00:24:22;;;;;;;4.90;1.55;;;23.30;86.10;;;;;;3567674;40;20411;-63
2021/07/20 00:26:48;;;;;;;5.00;1.70;;;23.20;86.60;;;;;;3566427;40;20391;-63
2021/07/20 00:29:14;;;;;;;5.93;1.80;;;23.20;86.20;;;;;;3556226;40;20815;-62
2021/07/20 00:31:40;;;;;;;5.43;1.60;;;23.30;86.60;;;;;;3562216;40;20425;-63
2021/07/20 00:34:08;;;;;;;4.60;1.60;;;23.20;87.50;;;;;;3566215;40;20786;-63
2021/07/20 00:36:34;;;;;;;3.78;1.48;;;23.20;86.80;;;;;;3564713;40;20854;-64
2021/07/20 00:39:00;;;;;;;4.38;1.33;;;23.10;86.20;;;;;;3564819;40;20409;-64
2021/07/20 00:41:26;;;;;;;4.22;1.40;;;23.10;86.60;;;;;;3560172;40;20418;-63
2021/07/20 00:43:52;;;;;;;4.75;1.52;;;23.00;86.90;;;;;;3565008;40;20447;-63
2021/07/20 00:46:17;;;;;;;5.57;1.27;;;23.00;87.60;;;;;;3565476;40;20728;-63
2021/07/20 00:48:43;;;;;;;5.20;1.50;;;22.90;87.60;;;;;;3565120;40;20639;-63
2021/07/20 00:51:11;;;;;;;4.20;1.42;;;23.00;86.70;;;;;;3564480;40;20397;-63
2021/07/20 00:53:37;;;;;;;5.70;1.58;;;22.90;87.10;;;;;;3565419;40;20389;-63
2021/07/20 00:56:04;;;;;;;5.65;1.65;;;23.00;87.10;;;;;;3564545;40;20405;-63
2021/07/20 00:58:31;;;;;;;2.00;1.20;;;22.90;87.10;;;;;;3563493;40;20708;-63
2021/07/20 01:00:57;;;;;;;8.00;1.90;;;22.90;86.70;;;;;;3593985;23;20445;-64
2021/07/20 01:03:23;;;;;;;3.53;1.80;;;22.80;87.30;;;;;;3560306;40;20413;-64
2021/07/20 01:05:49;;;;;;;4.00;1.50;;;22.90;87.20;;;;;;3555686;40;20414;-64
2021/07/20 01:08:20;;;;;;;5.68;1.50;;;22.90;87.20;;;;;;3561784;40;20653;-64
2021/07/20 01:10:47;;;;;;;6.30;1.75;;;22.90;87.20;;;;;;3568612;40;20483;-64
2021/07/20 01:13:14;;;;;;;5.30;1.50;;;22.80;87.60;;;;;;3565434;40;20398;-64
2021/07/20 01:15:40;;;;;;;4.13;1.45;;;22.80;87.40;;;;;;3549201;40;20777;-64
2021/07/20 01:18:07;;;;;;;5.10;1.63;;;22.70;87.50;;;;;;3564317;40;20701;-64
2021/07/20 01:20:33;;;;;;;3.53;1.53;;;22.70;87.80;;;;;;3563388;40;20714;-64
2021/07/20 01:23:05;;;;;;;5.53;1.95;;;22.70;87.30;;;;;;3565548;40;20418;-63
2021/07/20 01:25:32;;;;;;;5.38;1.45;;;22.70;87.40;;;;;;3558520;40;20380;-63
2021/07/20 01:28:02;;;;;;;6.43;1.65;;;22.70;88.20;;;;;;3560720;40;21356;-63
2021/07/20 01:30:30;;;;;;;6.78;1.88;;;22.60;88.10;;;;;;3564721;40;20389;-66
2021/07/20 01:32:58;;;;;;;7.80;1.77;;;22.60;88.10;;;;;;3570175;40;20416;-64
2021/07/20 01:35:25;;;;;;;4.80;1.77;;;22.70;88.00;;;;;;3557380;40;20401;-64
2021/07/20 01:37:54;;;;;;;5.57;1.58;;;22.70;88.30;;;;;;3571870;40;20412;-64
2021/07/20 01:40:22;;;;;;;7.40;1.98;;;22.60;87.80;;;;;;3557803;40;20455;-63
2021/07/20 01:42:50;;;;;;;4.83;1.87;;;22.60;88.30;;;;;;3557607;40;20413;-64
2021/07/20 01:45:15;;;;;;;8.40;1.98;;;22.60;87.70;;;;;;3557502;40;20405;-64
2021/07/20 01:47:45;;;;;;;3.72;1.50;;;22.70;87.40;;;;;;3558030;40;20381;-63
2021/07/20 01:50:13;;;;;;;4.35;1.83;;;22.60;87.90;;;;;;3567418;40;20394;-64
2021/07/20 01:52:39;;;;;;;4.40;1.63;;;22.60;87.50;;;;;;3557653;40;20467;-64
2021/07/20 01:55:06;;;;;;;6.45;1.77;;;22.60;87.90;;;;;;3559158;40;20415;-64
2021/07/20 01:57:33;;;;;;;4.13;1.85;;;22.60;87.30;;;;;;3558046;40;20401;-64
2021/07/20 02:00:00;;;;;;;6.82;2.08;;;22.60;87.50;;;;;;3566689;40;20778;-64
2021/07/20 02:02:34;;;;;;;4.85;1.70;;;22.70;86.70;;;;;;3574048;40;20408;-63
2021/07/20 02:10:15;;;;;;;3.70;1.33;;;22.70;87.30;;;;;;3562564;40;20911;-64
2021/07/20 02:12:43;;;;;;;5.00;1.97;;;22.70;86.80;;;;;;3575957;40;20388;-64
2021/07/20 02:15:11;;;;;;;2.50;1.60;;;22.70;86.70;;;;;;3576897;40;20849;-64
2021/07/20 02:17:40;;;;;;;3.30;1.38;;;22.70;87.20;;;;;;3573643;40;20403;-64
2021/07/20 02:20:10;;;;;;;3.65;1.77;;;22.60;87.90;;;;;;3576781;40;20391;-64
2021/07/20 02:22:37;;;;;;;5.35;1.90;;;;;;;;;;3565294;40;20386;-64
2021/07/20 02:25:04;;;;;;;4.88;1.40;;;;;;;;;;3577006;40;20749;-63
2021/07/20 02:27:31;;;;;;;5.60;1.60;;;;;;;;;;3576656;40;20384;-64
2021/07/20 02:29:59;;;;;;;4.05;1.63;;;;;;;;;;3576634;40;20661;-64
2021/07/20 02:32:28;;;;;;;6.57;1.85;;;;;;;;;;3575221;40;20380;-65
2021/07/20 02:34:55;;;;;;;4.15;1.90;;;;;;;;;;3576738;40;20407;-64
2021/07/20 02:37:21;;;;;;;6.18;1.63;;;22.50;88.50;;;;;;3577330;40;20381;-64
2021/07/20 02:39:48;;;;;;;3.33;1.50;;;22.30;87.50;;;;;;3573976;40;20470;-64
2021/07/20 02:42:14;;;;;;;4.90;1.53;;;22.30;87.60;;;;;;3571002;40;20650;-64
2021/07/20 02:44:40;;;;;;;5.05;1.67;;;22.40;87.20;;;;;;3571384;40;20419;-64
2021/07/20 02:47:07;;;;;;;5.95;1.45;;;22.40;87.30;;;;;;3572587;40;20396;-65
2021/07/20 02:49:37;;;;;;;4.63;1.93;;;22.40;87.00;;;;;;3567934;40;20403;-64
2021/07/20 02:52:04;;;;;;;4.55;1.73;;;22.40;87.50;;;;;;3564885;40;20365;-64
2021/07/20 02:54:31;;;;;;;5.03;1.40;;;22.40;87.90;;;;;;3570274;40;20433;-64
2021/07/20 02:56:58;;;;;;;4.40;1.40;;;22.40;88.10;;;;;;3575840;40;20485;-64
2021/07/20 02:59:26;;;;;;;5.63;1.85;;;22.30;88.80;;;;;;3560008;40;20485;-63
2021/07/20 03:01:54;;;;;;;4.50;1.60;;;22.20;89.30;;;;;;3570005;40;20415;-64
2021/07/20 03:04:20;;;;;;;4.75;1.60;;;22.10;89.80;;;;;;3575266;40;20442;-63
2021/07/20 03:06:51;;;;;;;5.35;1.30;;;22.10;89.70;;;;;;3559396;40;20454;-63
2021/07/20 03:09:18;;;;;;;3.13;1.35;;;22.00;89.70;;;;;;3574054;40;20425;-64
2021/07/20 03:11:48;;;;;;;5.38;1.83;;;22.00;89.80;;;;;;3566742;40;20470;-64
2021/07/20 03:14:18;;;;;;;3.75;1.30;;;21.90;90.00;;;;;;3573219;40;20446;-64
2021/07/20 03:16:45;;;;;;;3.90;1.50;;;21.90;89.70;;;;;;3566925;40;20427;-63
2021/07/20 03:19:12;;;;;;;5.22;1.38;;;21.90;89.70;;;;;;3565605;40;20422;-64
2021/07/20 03:21:40;;;;;;;5.47;1.77;;;21.90;89.60;;;;;;3576382;40;20380;-63
2021/07/20 03:24:08;;;;;;;6.55;1.70;;;21.90;90.10;;;;;;3576279;40;20423;-65
2021/07/20 03:26:34;;;;;;;5.65;1.88;;;21.90;90.00;;;;;;3566804;40;20419;-64
2021/07/20 03:29:02;;;;;;;4.93;1.50;;;21.90;89.60;;;;;;3576390;40;20376;-64
2021/07/20 03:31:28;;;;;;;4.47;1.80;;;21.90;89.70;;;;;;3572560;40;20451;-64
2021/07/20 03:33:55;;;;;;;5.55;1.73;;;21.90;90.10;;;;;;3569562;40;20692;-64
2021/07/20 03:36:22;;;;;;;4.75;1.80;;;21.90;89.90;;;;;;3563790;40;20523;-64
2021/07/20 03:38:48;;;;;;;4.40;1.58;;;22.00;89.70;;;;;;3569621;40;20410;-64
2021/07/20 03:41:16;;;;;;;6.47;2.33;;;22.00;89.40;;;;;;3569424;40;20470;-64
2021/07/20 03:43:42;;;;;;;4.03;1.67;;;22.10;88.90;;;;;;3578471;40;20409;-64
2021/07/20 03:46:08;;;;;;;3.90;1.40;;;22.10;89.60;;;;;;3566877;40;20493;-63
2021/07/20 03:48:35;;;;;;;5.22;1.70;;;22.00;90.00;;;;;;3565625;40;20494;-64
2021/07/20 03:51:02;;;;;;;5.35;1.60;;;22.00;90.20;;;;;;3568133;40;20392;-64
2021/07/20 03:53:31;;;;;;;4.63;1.60;;;21.90;90.10;;;;;;3575830;40;20502;-64
2021/07/20 03:55:59;;;;;;;4.53;1.83;;;21.90;90.30;;;;;;3573929;40;20469;-63
2021/07/20 03:58:28;;;;;;;5.15;1.75;;;21.80;90.60;;;;;;3576355;40;20392;-64
2021/07/20 04:00:55;;;;;;;3.53;1.42;;;21.80;90.40;;;;;;3575579;40;20459;-63
2021/07/20 04:03:22;;;;;;;5.00;1.90;;;;;;;;;;3568471;40;20367;-63
2021/07/20 04:05:50;;;;;;;5.28;1.98;;;;;;;;;;3567141;40;20405;-63
2021/07/20 04:08:18;;;;;;;4.50;1.65;;;;;;;;;;3573188;40;20372;-63
2021/07/20 04:10:45;;;;;;;7.47;1.88;;;;;;;;;;3564107;40;20385;-64
2021/07/20 04:13:11;;;;;;;4.10;1.48;;;;;;;;;;3565989;40;20481;-64
2021/07/20 04:15:41;;;;;;;4.63;1.52;;;;;;;;;;3573222;40;20788;-63
2021/07/20 04:18:08;;;;;;;2.70;1.60;;;21.80;90.50;;;;;;3574976;40;20394;-64
2021/07/20 04:20:36;;;;;;;4.38;1.52;;;21.90;90.30;;;;;;3554726;40;20411;-63
2021/07/20 04:23:02;;;;;;;3.50;1.50;;;21.90;90.00;;;;;;3575349;40;20407;-63
2021/07/20 04:25:29;;;;;;;5.85;2.22;;;21.90;90.30;;;;;;3575494;40;20434;-64
2021/07/20 04:27:55;;;;;;;4.72;1.73;;;22.00;90.20;;;;;;3564058;40;20389;-64
2021/07/20 04:30:21;;;;;;;4.10;1.65;;;21.90;90.50;;;;;;3562916;40;20391;-63
2021/07/20 04:32:49;;;;;;;4.97;1.88;;;21.90;90.70;;;;;;3566557;40;20404;-64
2021/07/20 04:35:17;;;;;;;5.13;2.43;;;21.80;90.70;;;;;;3563935;40;20416;-64
2021/07/20 04:37:44;;;;;;;6.03;2.03;;;21.70;90.70;;;;;;3573067;40;20406;-63
2021/07/20 04:40:11;;;;;;;4.53;1.80;;;21.70;90.80;;;;;;3571845;40;20387;-63
2021/07/20 04:42:39;;;;;;;3.90;1.80;;;21.80;90.60;;;;;;3566330;40;20407;-64
2021/07/20 04:45:07;;;;;;;4.40;1.95;;;21.70;90.60;;;;;;3565580;40;20410;-64
2021/07/20 04:47:34;;;;;;;3.67;1.60;;;21.80;90.90;;;;;;3572928;40;20392;-64
2021/07/20 04:50:03;;;;;;;3.95;1.70;;;21.80;90.80;;;;;;3561413;40;20471;-63
2021/07/20 04:52:29;;;;;;;4.10;1.70;;;21.80;90.60;;;;;;3572906;40;20466;-64
2021/07/20 04:54:57;;;;;;;3.20;1.52;;;21.80;91.00;;;;;;3565226;40;20435;-64
2021/07/20 04:57:23;;;;;;;8.00;1.77;;;21.80;90.80;;;;;;3569643;40;20762;-64
2021/07/20 04:59:48;;;;;;;4.32;1.90;;;21.80;91.10;;;;;;3557611;40;20499;-64
2021/07/20 05:02:15;;;;;;;6.70;2.58;;;21.80;91.30;;;;;;3563563;40;20429;-63
2021/07/20 05:04:42;;;;;;;5.68;2.03;;;21.70;91.00;;;;;;3565090;40;20401;-64
2021/07/20 05:07:11;;;;;;;7.35;1.55;;;21.70;91.10;;;;;;3564527;40;20529;-64
2021/07/20 05:09:38;;;;;;;5.38;1.52;;;21.80;91.00;;;;;;3566464;40;20451;-63
2021/07/20 05:12:06;;;;;;;3.60;1.60;;;21.90;91.50;;;;;;3560149;40;20791;-64
2021/07/20 05:14:32;;;;;;;3.75;2.15;;;21.90;91.30;;;;;;3566336;40;20397;-64
2021/07/20 05:16:58;;;;;;;4.60;1.85;;;21.90;91.10;;;;;;3565213;40;20456;-64
2021/07/20 05:19:25;;;;;;;7.30;2.00;;;22.00;90.90;;;;;;3557376;40;20426;-64
2021/07/20 05:21:52;;;;;;;4.20;1.40;;;22.00;91.10;;;;;;3567017;40;20410;-63
2021/07/20 05:24:21;;;;;;;3.77;1.73;;;22.00;91.50;;;;;;3557759;40;20395;-63
2021/07/20 05:26:48;;;;;;;4.72;2.10;;;22.00;91.10;;;;;;3555506;40;20656;-64
2021/07/20 05:29:14;;;;;;;4.00;1.90;;;22.10;91.00;;;;;;3558080;40;20413;-65
2021/07/20 05:31:44;;;;;;;2.72;1.63;;;22.10;91.20;;;;;;3565292;40;20483;-65
2021/07/20 05:34:10;;;;;;;4.28;1.73;;;22.10;91.10;;;;;;3550393;40;20671;-64
2021/07/20 05:36:36;;;;;;;2.77;1.73;;;22.10;91.20;;;;;;3563820;40;20394;-64
2021/07/20 05:39:02;;;;;;;3.22;1.92;;;22.20;91.10;;;;;;3556194;40;20666;-64
2021/07/20 05:41:30;;;;;;;4.82;2.03;;;22.20;90.80;;;;;;3556724;40;20388;-64
2021/07/20 05:43:57;;;;;;;4.13;1.85;;;22.20;91.20;;;;;;3557100;40;20404;-63
2021/07/20 05:46:23;;;;;;;5.43;1.80;;;22.20;91.10;;;;;;3566014;40;20766;-63
2021/07/20 05:48:49;;;;;;;4.53;1.73;;;22.30;91.30;;;;;;3555659;40;20777;-63
2021/07/20 05:51:16;;;;;;;5.00;2.28;;;22.30;91.00;;;;;;3556070;40;20409;-64
2021/07/20 05:53:43;;;;;;;6.13;2.17;;;22.30;90.80;;;;;;3556492;40;20417;-63
2021/07/20 05:56:10;;;;;;;3.90;1.48;;;22.40;91.30;;;;;;3565913;40;20410;-63
2021/07/20 05:58:38;;;;;;;6.40;2.50;;;22.50;90.90;;;;;;3557483;40;20414;-64
2021/07/20 06:01:05;;;;;;;3.72;1.80;;;22.50;91.00;;;;;;3557385;40;20436;-64
2021/07/20 06:03:33;;;;;;;3.97;1.60;;;22.50;91.30;;;;;;3557864;40;20781;-64
2021/07/20 06:06:00;;;;;;;5.13;1.70;;;22.50;91.60;;;;;;3566791;40;20787;-64
2021/07/20 06:08:28;;;;;;;4.05;2.28;;;22.70;90.80;;;;;;3566860;40;20385;-64
2021/07/20 06:10:55;;;;;;;4.65;2.03;;;22.70;90.80;;;;;;3557490;40;20409;-63
2021/07/20 06:13:24;;;;;;;3.90;1.90;;;22.70;90.80;;;;;;3566878;40;20442;-64
2021/07/20 06:15:52;;;;;;;5.80;1.40;;;22.70;91.00;;;;;;3557405;40;20403;-64
2021/07/20 06:18:18;;;;;;;5.43;1.90;;;22.80;91.10;;;;;;3566106;40;20803;-64
2021/07/20 06:20:50;;;;;;;3.30;1.67;;;22.80;90.70;;;;;;3566832;40;20387;-64
2021/07/20 06:23:17;;;;;;;4.50;1.65;;;22.90;90.30;;;;;;3557298;40;20502;-64
2021/07/20 06:25:43;;;;;;;4.63;1.73;;;23.00;90.30;;;;;;3566894;40;20507;-64
2021/07/20 06:28:10;;;;;;;4.77;1.80;;;23.10;91.00;;;;;;3566654;40;20397;-64
2021/07/20 06:30:39;;;;;;;5.07;1.70;;;23.10;90.60;;;;;;3557442;40;20663;-64
2021/07/20 06:33:07;;;;;;;4.25;1.60;;;;;;;;;;3557732;40;20405;-63
2021/07/20 06:35:34;;;;;;;3.22;1.77;;;23.20;91.10;;;;;;3566523;40;20514;-64
2021/07/20 06:38:02;;;;;;;5.65;2.17;;;23.30;90.10;;;;;;3566761;40;20401;-64
2021/07/20 06:40:28;;;;;;;7.22;1.65;;;23.40;90.70;;;;;;3556913;40;20393;-63
2021/07/20 06:42:56;;;;;;;3.90;1.80;;;23.50;90.00;;;;;;3561457;40;20697;-64
2021/07/20 06:45:22;;;;;;;5.10;1.75;;;23.60;90.20;;;;;;3566849;40;20378;-64
2021/07/20 06:47:49;;;;;;;4.22;1.83;;;;;;;;;;3566645;40;20405;-64
2021/07/20 06:50:20;;;;;;;4.00;2.03;;;;;;;;;;3557783;40;20393;-64
2021/07/20 06:52:48;;;;;;;6.50;2.20;;;;;;;;;;3566552;40;20374;-64
2021/07/20 06:55:14;;;;;;;3.35;1.80;;;;;;;;;;3566584;40;20400;-65
2021/07/20 06:57:43;;;;;;;4.70;1.80;;;;;;;;;;3564283;40;20483;-64
2021/07/20 07:00:10;;;;;;;6.60;2.33;;;;;;;;;;3549479;40;20393;-64
2021/07/20 07:02:37;;;;;;;5.35;2.10;;;;;;;;;;3563389;40;20407;-64
2021/07/20 07:05:08;;;;;;;6.32;2.10;;;23.60;90.30;;;;;;3566547;40;20386;-63
2021/07/20 07:07:36;;;;;;;4.93;2.10;;;24.30;90.10;;;;;;3567043;40;20379;-64
2021/07/20 07:10:04;;;;;;;4.18;1.98;;;24.40;89.60;;;;;;3557326;40;20426;-63
2021/07/20 07:12:32;;;;;;;6.10;2.00;;;24.50;88.80;;;;;;3566447;40;20396;-64
2021/07/20 07:14:59;;;;;;;2.97;2.17;;;;;;;;;;3566507;40;20767;-63
2021/07/20 07:17:26;;;;;;;5.80;2.35;;;;;;;;;;3557297;40;20402;-63
2021/07/20 07:19:54;;;;;;;3.80;2.00;;;;;;;;;;3547974;40;20516;-63
2021/07/20 07:22:21;;;;;;;5.65;2.42;;;24.60;90.30;;;;;;3566651;40;20393;-64
2021/07/20 07:24:51;;;;;;;5.47;2.22;;;25.10;88.60;;;;;;3557563;40;20634;-63
2021/07/20 07:27:19;;;;;;;4.03;2.13;;;;;;;;;;3563090;40;20445;-64
2021/07/20 07:29:45;;;;;;;4.07;1.75;;;;;;;;;;3566432;40;20377;-64
2021/07/20 07:32:12;;;;;;;3.53;1.73;;;;;;;;;;3566399;40;20390;-64
2021/07/20 07:34:38;;;;;;;4.25;2.35;;;;;;;;;;3566596;40;20450;-64
2021/07/20 07:37:05;;;;;;;4.70;2.15;;;;;;;;;;3566251;40;20390;-66
2021/07/20 07:39:32;;;;;;;4.32;2.08;;;;;;;;;;3563280;40;20378;-64
2021/07/20 07:42:00;;;;;;;4.03;1.80;;;;;;;;;;3568522;40;20401;-64
2021/07/20 07:44:27;;;;;;;3.60;2.00;;;;;;;;;;3555131;40;20431;-64
2021/07/20 07:46:55;;;;;;;4.97;2.55;;;;;;;;;;3566477;40;20861;-64
2021/07/20 07:49:21;;;;;;;4.32;2.05;;;;;;;;;;3555135;40;20416;-64
2021/07/20 07:51:49;;;;;;;7.13;2.13;;;;;;;;;;3564971;40;20408;-64
2021/07/20 07:54:16;;;;;;;4.17;2.00;;;;;;;;;;3565132;40;20511;-63
2021/07/20 07:56:43;;;;;;;6.07;2.17;;;;;;;;;;3566567;40;20374;-63
2021/07/20 07:59:11;;;;;;;6.10;2.00;;;;;;;;;;3559929;40;20638;-64
2021/07/20 08:01:41;;;;;;;5.10;1.92;;;;;;;;;;3565123;40;20413;-64
2021/07/20 08:04:08;;;;;;;3.20;1.67;;;;;;;;;;3566058;40;20384;-64
2021/07/20 08:06:35;;;;;;;4.50;1.95;;;25.10;89.00;;;;;;3563187;40;20385;-64
2021/07/20 08:09:02;;;;;;;4.35;1.90;;;27.40;85.00;;;;;;3563833;40;20394;-64
2021/07/20 08:11:29;;;;;;;4.40;2.00;;;;;;;;;;3554029;40;20782;-64
2021/07/20 08:13:58;;;;;;;3.63;1.90;;;27.50;84.50;;;;;;3561285;40;20420;-64
2021/07/20 08:16:29;;;;;;;5.03;2.15;;;27.80;83.40;;;;;;3563571;40;20385;-65
2021/07/20 08:18:56;;;;;;;4.10;2.42;;;27.90;86.70;;;;;;3563433;40;20687;-64
2021/07/20 08:21:24;;;;;;;14.30;2.80;;;27.90;83.10;;;;;;3560838;40;20398;-65
2021/07/20 08:23:50;;;;;;;3.60;2.00;;;28.00;86.20;;;;;;3554554;40;20386;-65
2021/07/20 08:26:19;;;;;;;6.22;2.10;;;28.10;83.90;;;;;;3557049;40;20557;-64
2021/07/20 08:28:47;;;;;;;3.58;2.10;;;;;;;;;;3565982;40;20385;-64
2021/07/20 08:31:14;;;;;;;3.33;2.30;;;;;;;;;;3558745;40;20751;-64
2021/07/20 08:33:43;;;;;;;8.20;2.60;;;;;;;;;;3555374;40;20401;-64
2021/07/20 08:36:10;;;;;;;5.27;1.90;;;;;;;;;;3558784;40;20432;-64
2021/07/20 08:38:36;;;;;;;2.75;1.60;;;;;;;;;;3561944;40;20472;-64
2021/07/20 08:41:10;;;;;;;5.20;1.90;;;;;;;;;;3568652;40;20449;-64
2021/07/20 08:43:44;;;;;;;3.83;1.90;;;;;;;;;;3569511;40;20734;-64
2021/07/20 08:46:18;;;;;;;3.28;1.80;;;;;;;;;;3569306;40;20379;-64
2021/07/20 08:48:50;;;;;;;2.67;1.80;;;;;;;;;;3569388;40;20436;-64
2021/07/20 08:51:18;;;;;;;4.70;1.85;;;;;;;;;;3569163;40;20405;-65
2021/07/20 08:53:49;;;;;;;5.65;2.10;;;;;;;;;;3562997;40;20704;-65
2021/07/20 08:56:17;;;;;;;5.90;1.90;;;;;;;;;;3567526;40;20377;-64
2021/07/20 08:58:47;;;;;;;4.43;1.70;;;28.30;83.40;;;;;;3563544;40;20406;-64
2021/07/20 09:01:16;;;;;;;4.80;2.20;;;29.40;83.10;;;;;;3560435;40;20407;-64
2021/07/20 09:03:54;;;;;;;3.67;2.00;;;29.40;82.60;;;;;;3579357;40;20368;-64
2021/07/20 09:06:27;;;;;;;3.33;1.70;;;29.50;84.40;;;;;;3578889;40;20396;-65
2021/07/20 09:08:58;;;;;;;4.70;1.90;;;;;;;;;;3569622;40;20522;-65
2021/07/20 09:11:32;;;;;;;2.50;1.90;;;29.60;82.70;;;;;;3575887;40;20376;-65
2021/07/20 09:14:09;;;;;;;5.53;2.28;;;30.00;84.30;;;;;;3578879;40;20776;-65
2021/07/20 09:16:38;;;;;;;4.90;1.70;;;29.90;84.20;;;;;;3569707;40;20411;-65
2021/07/20 09:19:12;;;;;;;4.40;1.73;;;29.90;80.80;;;;;;3579083;40;20652;-64
2021/07/20 09:21:43;;;;;;;4.57;1.90;;;29.90;79.50;;;;;;3578534;40;20485;-65
2021/07/20 09:24:12;;;;;;;4.80;2.08;;;29.90;78.90;;;;;;3561833;40;20399;-64
2021/07/20 09:26:43;;;;;;;5.47;2.28;;;29.90;80.00;;;;;;3578693;40;20372;-65
2021/07/20 09:29:15;;;;;;;5.30;2.70;;;29.90;82.10;;;;;;3578867;40;20375;-65
2021/07/20 09:32:01;;;;;;;7.10;2.80;;;29.90;78.70;;;;;;3578424;40;20486;-65
2021/07/20 09:34:40;;;;;;;4.47;2.28;;;29.90;79.90;;;;;;3569743;40;20411;-64
2021/07/20 09:37:09;;;;;;;3.10;2.25;;;29.80;80.70;;;;;;3578651;40;20383;-64
2021/07/20 09:39:47;;;;;;;4.07;2.33;;;29.90;79.10;;;;;;3578979;40;20419;-64
2021/07/20 09:42:31;;;;;;;4.95;1.90;;;29.70;79.60;;;;;;3578696;40;20614;-64
2021/07/20 09:45:02;;;;;;;4.07;2.10;;;29.70;79.60;;;;;;3568961;40;20656;-65
2021/07/20 09:47:51;;;;;;;4.10;2.22;;;29.60;80.10;;;;;;3578777;40;20378;-65
2021/07/20 09:50:20;;;;;;;5.30;2.17;;;29.80;80.70;;;;;;3578205;40;20384;-65
2021/07/20 09:53:19;;;;;;;4.80;2.08;;;29.90;79.80;;;;;;3565367;40;20392;-65
2021/07/20 09:56:20;;;;;;;5.53;2.40;;;30.10;78.50;;;;;;3576754;40;20776;-64
2021/07/20 09:58:56;;;;;;;5.82;2.60;;;30.20;78.70;;;;;;3557862;40;20416;-65
2021/07/20 10:01:25;;;;;;;5.90;2.27;;;;;;;;;;3566777;40;20427;-65
2021/07/20 10:03:54;;;;;;;4.07;2.33;;;;;;;;;;3574119;40;20837;-65
2021/07/20 10:06:31;;;;;;;7.00;2.15;;;30.40;80.90;;;;;;3569900;40;20389;-65
2021/07/20 10:08:59;;;;;;;5.18;2.17;;;30.80;80.50;;;;;;3565923;40;20407;-65
2021/07/20 10:11:29;;;;;;;4.00;2.25;;;30.80;80.40;;;;;;3567200;40;20397;-65
2021/07/20 10:14:10;;;;;;;4.80;2.42;;;31.00;80.10;;;;;;3566327;40;20397;-64
2021/07/20 10:16:48;;;;;;;5.63;2.28;;;31.10;80.30;;;;;;3571549;40;20451;-65
2021/07/20 10:19:24;;;;;;;6.03;2.20;;;31.10;80.20;;;;;;3559996;40;20375;-65
2021/07/20 10:21:57;;;;;;;5.25;2.53;;;30.90;80.30;;;;;;3557938;40;20394;-64
2021/07/20 10:24:25;;;;;;;6.30;2.50;;;30.80;82.70;;;;;;3558029;40;20370;-65
2021/07/20 10:26:57;;;;;;;4.07;2.70;;;30.90;81.50;;;;;;3570796;40;20443;-65
2021/07/20 10:29:31;;;;;;;4.70;2.17;;;31.00;81.20;;;;;;3554356;40;20457;-65
2021/07/20 10:32:06;;;;;;;5.45;2.10;;;31.20;82.30;;;;;;3571863;40;20394;-66
2021/07/20 10:34:33;;;;;;;3.97;2.60;;;31.20;80.60;;;;;;3571636;40;20385;-65
2021/07/20 10:37:08;;;;;;;4.47;2.53;;;31.40;84.90;;;;;;3566686;40;20405;-65
2021/07/20 10:39:39;;;;;;;4.85;2.25;;;31.50;79.80;;;;;;3569797;40;20378;-65
2021/07/20 10:42:09;;;;;;;6.32;2.70;;;31.20;82.30;;;;;;3564434;40;20384;-65
2021/07/20 10:44:42;;;;;;;5.50;2.67;;;31.20;80.90;;;;;;3567969;40;20566;-64
2021/07/20 10:47:10;;;;;;;6.30;2.17;;;31.10;83.10;;;;;;3568853;40;20369;-65
2021/07/20 10:49:48;;;;;;;4.55;2.55;;;31.40;82.00;;;;;;3558231;40;20626;-64
2021/07/20 10:52:24;;;;;;;4.55;2.30;;;;;;;;;;3566038;40;20762;-65
2021/07/20 10:54:55;;;;;;;4.93;2.10;;;;;;;;;;3558184;40;20657;-65
2021/07/20 10:57:24;;;;;;;5.00;2.33;;;;;;;;;;3567246;40;20397;-66
2021/07/20 10:59:57;;;;;;;5.43;2.33;;;;;;;;;;3569220;40;20387;-66
2021/07/20 11:02:30;;;;;;;5.30;2.67;;;;;;;;;;3567220;40;20438;-65
2021/07/20 11:04:57;;;;;;;4.60;2.53;;;;;;;;;;3566534;40;20389;-65
2021/07/20 11:07:27;;;;;;;4.63;2.22;;;;;;;;;;3567209;40;20378;-64
2021/07/20 11:09:54;;;;;;;6.78;2.50;;;;;;;;;;3555934;40;20409;-65
2021/07/20 11:12:22;;;;;;;4.25;2.20;;;;;;;;;;3565716;40;20654;-64
2021/07/20 11:14:49;;;;;;;6.03;2.57;;;;;;;;;;3567940;40;20675;-64
2021/07/20 11:17:20;;;;;;;5.18;2.20;;;31.80;80.30;;;;;;3566944;40;20405;-65
2021/07/20 11:19:49;;;;;;;6.93;2.95;;;32.10;77.90;;;;;;3565619;40;20366;-64
2021/07/20 11:22:16;;;;;;;4.32;2.15;;;32.00;77.40;;;;;;3564693;40;20667;-64
2021/07/20 11:24:44;;;;;;;4.47;2.30;;;31.70;76.70;;;;;;3565118;40;20408;-65
2021/07/20 11:27:13;;;;;;;4.00;2.42;;;31.70;74.00;;;;;;3565315;40;20445;-64
2021/07/20 11:29:39;;;;;;;3.65;2.60;;;31.70;76.40;;;;;;3565180;40;20440;-65
2021/07/20 11:32:10;;;;;;;4.53;2.30;;;32.00;77.30;;;;;;3561151;40;20542;-65
2021/07/20 11:34:40;;;;;;;4.68;2.40;;;32.20;75.20;;;;;;3565884;40;20401;-64
2021/07/20 11:37:11;;;;;;;6.43;2.40;;;32.00;74.50;;;;;;3564620;40;20405;-65
2021/07/20 11:39:53;;;;;;;4.45;2.15;;;32.00;75.40;;;;;;3565009;40;20429;-65
2021/07/20 11:42:22;;;;;;;4.50;2.08;;;;;;;;;;3565769;40;20388;-65
2021/07/20 11:44:56;;;;;;;3.47;2.07;;;32.00;76.40;;;;;;3566120;40;20385;-64
2021/07/20 11:47:25;;;;;;;5.57;2.30;;;;;;;;;;3565309;40;20398;-65
2021/07/20 11:49:58;;;;;;;3.97;2.28;;;;;;;;;;3563259;40;20395;-65
2021/07/20 11:52:29;;;;;;;4.50;2.53;;;;;;;;;;3565197;40;20395;-66
2021/07/20 11:55:02;;;;;;;6.10;2.20;;;;;;;;;;3566502;40;20405;-65
2021/07/20 11:57:47;;;;;;;7.03;2.40;;;;;;;;;;3564685;40;20771;-64
2021/07/20 12:00:16;;;;;;;4.80;2.25;;;;;;;;;;3564166;40;20365;-64
2021/07/20 12:03:00;;;;;;;4.73;2.73;;;;;;;;;;3570257;40;20409;-64
2021/07/20 12:05:31;;;;;;;4.05;2.60;;;;;;;;;;3524758;40;20786;-64
2021/07/20 12:08:01;;;;;;;4.97;2.90;;;;;;;;;;3523440;40;20568;-64
2021/07/20 12:10:38;;;;;;;6.68;2.88;;;;;;;;;;3523648;40;20408;-65
2021/07/20 12:13:07;;;;;;;6.30;2.80;;;;;;;;;;3524638;40;20395;-65
2021/07/20 12:15:34;;;;;;;5.47;2.20;;;;;;;;;;3524034;40;20427;-64
2021/07/20 12:18:01;;;;;;;3.80;2.70;;;;;;;;;;3573282;40;20375;-64
2021/07/20 12:20:28;;;;;;;7.07;2.80;;;;;;;;;;3573549;40;20384;-65
2021/07/20 12:22:55;;;;;;;6.50;2.70;;;;;;;;;;3571089;40;20392;-65
2021/07/20 12:25:22;;;;;;;3.35;2.30;;;;;;;;;;3571043;40;20417;-64
2021/07/20 12:27:50;;;;;;;5.87;2.67;;;;;;;;;;3571513;40;20499;-65
2021/07/20 12:30:17;;;;;;;4.18;2.20;;;;;;;;;;3566501;40;20401;-65
2021/07/20 12:32:45;;;;;;;3.80;2.35;;;;;;;;;;3568294;40;20482;-65
2021/07/20 12:35:12;;;;;;;4.87;2.70;;;;;;;;;;3558288;40;20681;-65
2021/07/20 12:37:39;;;;;;;5.28;2.13;;;;;;;;;;3565944;40;20714;-65
2021/07/20 12:40:06;;;;;;;4.63;2.25;;;;;;;;;;3568561;40;20386;-65
2021/07/20 12:42:33;;;;;;;7.30;2.70;;;;;;;;;;3565758;40;20881;-65
2021/07/20 12:45:06;;;;;;;6.50;2.60;;;;;;;;;;3554587;40;20392;-64
2021/07/20 12:47:39;;;;;;;4.57;2.47;;;;;;;;;;3566016;40;20393;-65
2021/07/20 12:50:06;;;;;;;5.05;2.30;;;;;;;;;;3565993;40;20381;-64
2021/07/20 12:52:36;;;;;;;4.78;2.42;;;;;;;;;;3565599;40;20404;-64
2021/07/20 12:55:08;;;;;;;4.32;2.22;;;;;;;;;;3566050;40;20385;-65
2021/07/20 12:57:34;;;;;;;5.43;2.20;;;;;;;;;;3565542;40;20386;-65
2021/07/20 13:00:01;;;;;;;5.43;2.60;;;;;;;;;;3565353;40;20460;-65
2021/07/20 13:02:30;;;;;;;3.35;2.22;;;;;;;;;;3557558;40;20508;-65
2021/07/20 13:04:56;;;;;;;4.28;2.20;;;;;;;;;;3565774;40;20508;-65
2021/07/20 13:07:23;;;;;;;4.30;1.80;;;;;;;;;;3565164;40;20382;-65
2021/07/20 13:09:49;;;;;;;3.67;2.22;;;;;;;;;;3565724;40;20453;-65
2021/07/20 13:12:15;;;;;;;5.75;2.58;;;;;;;;;;3563219;40;20373;-65
2021/07/20 13:14:42;;;;;;;4.80;2.30;;;;;;;;;;3565650;40;20388;-65
2021/07/20 13:17:10;;;;;;;4.35;2.50;;;;;;;;;;3566013;40;20413;-64
2021/07/20 13:19:43;;;;;;;5.43;2.60;;;;;;;;;;3565884;40;20378;-65
2021/07/20 13:22:10;;;;;;;5.28;2.50;;;;;;;;;;3556611;40;20413;-65
2021/07/20 13:24:39;;;;;;;4.18;2.38;;;;;;;;;;3548378;40;20405;-64
2021/07/20 13:27:05;;;;;;;5.90;2.63;;;;;;;;;;3566571;40;20408;-65
2021/07/20 13:29:31;;;;;;;3.85;2.50;;;;;;;;;;3567424;40;20771;-64
2021/07/20 13:31:58;;;;;;;4.85;2.40;;;;;;;;;;3567377;40;20481;-65
2021/07/20 13:34:25;;;;;;;4.22;2.60;;;;;;;;;;3566949;40;20401;-65
2021/07/20 13:36:52;;;;;;;4.55;2.72;;;;;;;;;;3558177;40;20404;-65